Time;durP1;ratioP1;P1;durP2;ratioP2;P2;SDS_P1;SDS_P2;PMS_P1;PMS_P2;Temp;Humidity;BMP_temperature;BMP_pressure;BME280_temperature;BME280_humidity;BME280_pressure;Samples;Min_cycle;Max_cycle;Signal;HPM_P1;HPM_P2
2023/01/10 00:00:37;;;;;;;5.40;2.28;;;;;;;4.98;66.41;100080.09;4990289;28;20084;-69
2023/01/10 00:03:07;;;;;;;7.30;2.67;;;;;;;5.01;66.22;100082.47;4992988;28;20049;-69
2023/01/10 00:05:38;;;;;;;6.45;2.72;;;;;;;4.75;66.89;100088.31;4975468;28;20062;-69
2023/01/10 00:08:07;;;;;;;6.55;2.70;;;;;;;4.63;67.33;100088.59;4973322;28;20050;-69
2023/01/10 00:10:34;;;;;;;4.40;2.42;;;;;;;4.83;67.05;100090.28;4973918;28;20404;-69
2023/01/10 00:15:45;;;;;;;6.90;2.45;;;;;;;4.62;67.12;100106.31;4972505;28;20134;-70
2023/01/10 00:18:12;;;;;;;7.05;2.58;;;;;;;4.72;67.12;100103.69;4974227;28;20463;-69
2023/01/10 00:20:39;;;;;;;8.48;2.47;;;;;;;4.68;67.10;100102.28;4974494;28;20133;-70
2023/01/10 00:23:05;;;;;;;4.72;2.45;;;;;;;4.80;67.25;100109.19;4974172;28;20054;-70
2023/01/10 00:25:33;;;;;;;7.68;2.40;;;;;;;4.75;66.98;100106.91;4973944;28;20403;-69
2023/01/10 00:28:18;;;;;;;5.93;2.40;;;;;;;4.80;66.83;100110.00;4974514;28;20125;-69
2023/01/10 00:30:54;;;;;;;6.80;2.25;;;;;;;4.99;66.31;100103.84;4972299;28;20050;-70
2023/01/10 00:33:21;;;;;;;5.28;2.25;;;;;;;4.98;66.00;100112.00;4972748;28;20569;-70
2023/01/10 00:35:48;;;;;;;4.70;2.00;;;;;;;4.92;66.69;100115.19;4972475;28;20538;-70
2023/01/10 00:38:15;;;;;;;4.65;2.42;;;;;;;5.06;65.92;100109.47;4973065;28;20478;-70
2023/01/10 00:40:42;;;;;;;7.57;2.60;;;;;;;4.99;66.43;100114.50;4957027;28;20042;-70
2023/01/10 00:45:56;;;;;;;5.70;2.55;;;;;;;4.95;66.39;100120.25;5012051;28;20042;-70
2023/01/10 00:48:23;;;;;;;3.92;2.40;;;;;;;4.65;67.34;100132.63;5012900;28;20050;-70
2023/01/10 00:50:49;;;;;;;5.45;2.38;;;;;;;4.81;67.08;100129.44;5011449;28;20054;-70
2023/01/10 00:53:15;;;;;;;9.15;2.67;;;;;;;4.95;66.60;100128.22;5012416;28;20555;-70
2023/01/10 00:55:43;;;;;;;3.78;2.17;;;;;;;4.79;67.02;100139.38;5011654;28;20439;-69
2023/01/10 00:58:10;;;;;;;4.93;2.22;;;;;;;4.65;67.12;100137.09;5011955;28;20134;-70
2023/01/10 01:00:40;;;;;;;7.97;2.63;;;;;;;4.79;66.98;100134.88;5011305;28;20070;-70
2023/01/10 01:03:07;;;;;;;5.38;2.40;;;;;;;4.81;67.20;100145.41;5011855;28;20046;-70
2023/01/10 01:05:40;;;;;;;6.45;2.55;;;;;;;4.99;66.69;100154.38;4992996;28;20070;-69
2023/01/10 01:08:07;;;;;;;6.60;3.30;;;;;;;4.82;67.15;100155.03;4992152;28;20038;-69
2023/01/10 01:10:34;;;;;;;3.97;2.10;;;;;;;4.97;66.96;100155.47;4992395;28;20422;-69
2023/01/10 01:13:18;;;;;;;5.50;2.60;;;;;;;5.05;66.51;100167.13;4992031;28;20046;-70
2023/01/10 01:15:45;;;;;;;3.75;2.25;;;;;;;4.76;67.55;100166.22;4992713;28;20054;-70
2023/01/10 01:18:14;;;;;;;4.82;2.63;;;;;;;4.93;66.95;100173.53;4992201;28;20053;-71
2023/01/10 01:20:41;;;;;;;3.00;2.50;;;;;;;5.10;66.55;100182.66;4992555;28;20109;-70
2023/01/10 01:23:07;;;;;;;4.03;2.70;;;;;;;4.72;67.52;100183.41;4991435;28;20046;-69
2023/01/10 01:25:34;;;;;;;5.82;2.58;;;;;;;4.66;67.49;100190.13;4993049;28;20070;-70
2023/01/10 01:28:00;;;;;;;6.10;2.38;;;;;;;4.63;67.32;100190.38;4991729;28;20130;-70
2023/01/10 01:30:27;;;;;;;5.90;2.65;;;;;;;4.59;67.46;100199.59;4992218;28;20137;-70
2023/01/10 01:32:54;;;;;;;7.20;2.95;;;;;;;4.72;67.39;100202.84;4991844;28;20388;-69
2023/01/10 01:35:21;;;;;;;6.95;2.80;;;;;;;4.64;67.62;100212.47;4991923;28;20046;-71
2023/01/10 01:37:47;;;;;;;4.78;2.47;;;;;;;4.75;67.76;100218.53;4991616;28;20056;-70
2023/01/10 01:40:17;;;;;;;9.10;2.47;;;;;;;4.50;68.61;100229.63;4991867;28;20042;-69
2023/01/10 01:42:44;;;;;;;7.55;3.05;;;;;;;4.59;68.20;100226.16;4992185;28;20415;-69
2023/01/10 01:45:14;;;;;;;4.07;2.70;;;;;;;4.40;68.85;100242.00;4992271;28;20065;-69
2023/01/10 01:47:52;;;;;;;4.60;2.92;;;;;;;4.67;68.00;100244.09;4991940;28;20046;-69
2023/01/10 01:50:52;;;;;;;6.18;3.05;;;;;;;4.49;68.64;100246.53;4992065;28;20046;-69
2023/01/10 01:53:30;;;;;;;6.82;2.90;;;;;;;4.54;68.80;100244.31;4990751;28;20073;-71
2023/01/10 01:56:01;;;;;;;7.95;3.40;;;;;;;4.41;68.74;100247.19;4991111;28;20042;-70
2023/01/10 01:58:38;;;;;;;9.32;3.08;;;;;;;4.57;68.39;100239.56;4991290;28;20058;-69
2023/01/10 02:01:05;;;;;;;10.00;2.85;;;;;;;4.69;68.02;100247.44;4991692;28;20121;-70
2023/01/10 02:03:32;;;;;;;8.10;2.92;;;;;;;4.78;67.66;100252.81;4988278;28;20065;-70
2023/01/10 02:09:53;;;;;;;6.15;3.20;;;;;;;4.74;67.54;100272.66;4970800;28;20050;-69
2023/01/10 02:12:19;;;;;;;5.38;2.67;;;;;;;4.46;68.46;100276.03;4971926;28;20058;-69
2023/01/10 02:14:48;;;;;;;8.00;3.65;;;;;;;4.46;68.72;100276.84;4972269;28;20061;-69
2023/01/10 02:17:15;;;;;;;11.93;3.33;;;;;;;4.37;68.94;100279.41;4971884;28;20053;-69
2023/01/10 02:20:05;;;;;;;5.65;3.03;;;;;;;4.46;69.03;100281.34;4971209;28;20061;-70
2023/01/10 02:22:50;;;;;;;5.15;2.70;;;;;;;4.48;68.84;100287.34;4971222;28;20050;-69
2023/01/10 02:25:53;;;;;;;6.05;2.83;;;;;;;4.63;68.53;100279.88;4972018;28;20053;-69
2023/01/10 02:28:39;;;;;;;6.45;2.25;;;;;;;4.67;68.01;100287.44;4970834;28;20051;-69
2023/01/10 02:31:38;;;;;;;6.63;2.40;;;;;;;4.64;68.34;100286.88;4972256;28;20126;-69
2023/01/10 02:34:28;;;;;;;6.70;2.30;;;;;;;4.65;68.06;100288.53;4970928;28;20411;-70
2023/01/10 02:37:10;;;;;;;5.35;2.35;;;;;;;4.49;68.61;100289.03;4970153;28;20523;-69
2023/01/10 02:39:42;;;;;;;5.32;2.00;;;;;;;4.62;68.58;100289.63;4970129;28;20050;-69
2023/01/10 02:42:25;;;;;;;5.07;2.15;;;;;;;4.62;68.60;100299.44;4971042;28;20415;-69
2023/01/10 02:45:08;;;;;;;6.05;2.33;;;;;;;4.57;68.59;100306.00;4969820;28;20062;-69
2023/01/10 02:47:36;;;;;;;5.57;2.20;;;;;;;4.62;68.34;100302.94;4971733;28;20473;-70
2023/01/10 02:50:27;;;;;;;7.22;2.22;;;;;;;4.47;68.80;100313.06;4954373;28;20049;-70
2023/01/10 02:52:58;;;;;;;5.57;2.57;;;;;;;4.38;69.53;100311.19;4953497;28;20138;-70
2023/01/10 02:55:41;;;;;;;7.30;3.20;;;;;;;4.37;69.36;100316.59;4971097;28;20046;-70
2023/01/10 02:58:30;;;;;;;9.10;2.88;;;;;;;4.59;68.95;100321.81;4970142;28;20042;-70
2023/01/10 03:01:14;;;;;;;10.32;2.75;;;;;;;4.45;69.42;100330.09;4971399;28;20496;-70
2023/01/10 03:03:54;;;;;;;8.40;3.00;;;;;;;4.59;69.19;100329.78;4974346;28;20133;-70
2023/01/10 03:06:43;;;;;;;6.55;2.95;;;;;;;4.76;68.71;100334.50;4990407;28;20062;-69
2023/01/10 03:09:42;;;;;;;9.70;3.22;;;;;;;4.95;68.07;100339.03;4990517;28;20401;-71
2023/01/10 03:12:17;;;;;;;8.10;3.00;;;;;;;4.64;69.03;100348.81;4989558;28;20038;-70
2023/01/10 03:14:46;;;;;;;9.40;3.47;;;;;;;4.42;69.58;100354.28;4989872;28;20492;-69
2023/01/10 03:17:14;;;;;;;14.38;3.65;;;;;;;4.17;70.61;100364.25;4990401;28;20074;-70
2023/01/10 03:19:48;;;;;;;7.15;3.42;;;;;;;4.47;69.88;100366.19;4990061;28;20050;-69
2023/01/10 03:22:14;;;;;;;9.30;3.78;;;;;;;4.70;69.18;100380.19;4990020;28;20490;-71
2023/01/10 03:24:45;;;;;;;6.95;3.92;;;;;;;4.60;69.39;100375.78;4983050;28;20100;-68
2023/01/10 03:28:00;;;;;;;13.40;3.33;;;;;;;4.71;69.06;100384.53;4990764;28;20064;-70
2023/01/10 03:30:34;;;;;;;6.93;4.20;;;;;;;4.77;69.06;100385.81;4958730;28;20046;-69
2023/01/10 03:33:02;;;;;;;10.57;4.63;;;;;;;4.70;69.54;100395.28;4990468;28;20057;-70
2023/01/10 03:35:57;;;;;;;9.18;4.72;;;;;;;4.71;70.19;100400.47;4990937;28;20488;-70
2023/01/10 03:38:33;;;;;;;8.80;4.30;;;;;;;4.65;70.44;100405.47;4994127;28;20077;-70
2023/01/10 03:41:10;;;;;;;14.80;4.88;;;;;;;4.64;70.19;100415.25;4993809;28;20427;-70
2023/01/10 03:46:58;;;;;;;9.05;4.43;;;;;;;4.61;70.35;100426.13;4993926;28;20057;-70
2023/01/10 03:49:27;;;;;;;14.38;5.13;;;;;;;4.74;70.46;100428.59;4993014;28;20429;-70
2023/01/10 03:51:56;;;;;;;10.82;5.25;;;;;;;4.74;70.47;100431.25;4994169;28;20057;-70
2023/01/10 03:54:22;;;;;;;14.50;4.95;;;;;;;4.54;71.18;100440.91;4993922;28;20073;-70
2023/01/10 03:56:50;;;;;;;11.40;4.88;;;;;;;4.34;72.35;100440.69;4993727;28;20133;-70
2023/01/10 03:59:19;;;;;;;11.27;5.28;;;;;;;4.53;72.24;100455.16;4993549;28;20042;-71
2023/01/10 04:01:46;;;;;;;18.60;5.53;;;;;;;4.54;71.65;100448.88;4983029;28;20054;-69
2023/01/10 04:04:12;;;;;;;12.27;5.80;;;;;;;4.53;72.22;100456.00;4985324;28;20043;-69
2023/01/10 04:06:40;;;;;;;19.23;7.10;;;;;;;4.66;71.73;100462.94;4975384;28;20427;-69
2023/01/10 04:09:07;;;;;;;14.80;5.80;;;;;;;4.60;72.21;100461.66;4974453;28;20100;-70
2023/01/10 04:11:34;;;;;;;17.27;5.95;;;;;;;4.34;72.62;100471.72;4973416;28;20057;-69
2023/01/10 04:14:00;;;;;;;13.63;6.47;;;;;;;4.47;72.47;100476.91;4974151;28;20529;-69
2023/01/10 04:16:27;;;;;;;15.32;6.70;;;;;;;4.49;72.13;100481.13;4974759;28;20038;-69
2023/01/10 04:18:53;;;;;;;18.55;6.55;;;;;;;4.34;72.55;100485.84;4974800;28;20046;-69
2023/01/10 04:21:20;;;;;;;21.63;6.50;;;;;;;4.09;73.33;100488.81;4974348;28;20419;-70
2023/01/10 04:23:46;;;;;;;20.20;6.95;;;;;;;4.32;72.62;100494.94;4974728;28;20070;-68
2023/01/10 04:26:13;;;;;;;13.18;6.65;;;;;;;4.34;72.60;100506.25;4974585;28;20047;-69
2023/01/10 04:28:39;;;;;;;18.88;6.50;;;;;;;4.34;72.59;100509.75;4974668;28;20125;-69
2023/01/10 04:31:06;;;;;;;17.88;7.40;;;;;;;4.21;72.96;100511.75;4970058;28;20053;-68
2023/01/10 04:33:33;;;;;;;15.23;7.20;;;;;;;4.27;72.71;100513.03;4973633;28;20054;-69
2023/01/10 04:35:59;;;;;;;15.60;7.03;;;;;;;4.42;72.55;100517.16;4974153;28;20074;-70
2023/01/10 04:38:26;;;;;;;19.25;6.65;;;;;;;4.52;72.27;100530.50;4968784;28;20499;-70
2023/01/10 04:40:54;;;;;;;14.93;7.25;;;;;;;4.57;71.87;100529.16;4974210;28;20061;-70
2023/01/10 04:43:21;;;;;;;20.15;8.00;;;;;;;4.52;71.92;100535.81;4973843;28;20042;-69
2023/01/10 04:45:47;;;;;;;21.58;7.50;;;;;;;4.55;71.97;100543.53;4973131;28;20051;-69
2023/01/10 04:48:15;;;;;;;21.35;6.40;;;;;;;4.56;71.98;100545.25;4972744;28;20047;-68
2023/01/10 04:50:41;;;;;;;21.83;6.90;;;;;;;4.43;72.45;100549.84;4973997;28;20474;-69
2023/01/10 04:53:08;;;;;;;17.77;7.40;;;;;;;4.35;72.31;100569.03;4974415;28;20050;-69
2023/01/10 04:55:34;;;;;;;22.75;7.00;;;;;;;4.57;71.90;100568.16;4973335;28;20047;-69
2023/01/10 04:58:01;;;;;;;26.75;7.80;;;;;;;4.42;71.85;100574.75;4957050;28;20059;-69
2023/01/10 05:00:27;;;;;;;25.85;7.15;;;;;;;4.43;72.50;100581.72;4973156;28;20042;-68
2023/01/10 05:02:56;;;;;;;19.50;7.15;;;;;;;4.36;72.71;100588.47;4973154;28;20078;-70
2023/01/10 05:05:23;;;;;;;18.52;6.35;;;;;;;4.40;72.47;100588.13;4990069;28;20050;-69
2023/01/10 05:07:50;;;;;;;24.33;6.75;;;;;;;4.81;71.41;100592.72;4992595;28;20422;-69
2023/01/10 05:10:16;;;;;;;27.33;7.53;;;;;;;4.63;71.83;100588.94;4992840;28;20046;-69
2023/01/10 05:12:43;;;;;;;24.45;7.18;;;;;;;4.61;71.43;100590.03;4993619;28;20050;-68
2023/01/10 05:15:10;;;;;;;19.92;6.65;;;;;;;4.69;71.83;100601.69;4993232;28;20411;-70
2023/01/10 05:17:37;;;;;;;24.23;6.82;;;;;;;4.68;70.95;100613.31;4992832;28;20416;-69
2023/01/10 05:20:03;;;;;;;28.13;6.88;;;;;;;4.37;71.99;100620.22;4993228;28;21085;-70
2023/01/10 05:22:30;;;;;;;21.80;6.60;;;;;;;4.64;71.57;100624.31;4992206;28;20125;-70
2023/01/10 05:24:56;;;;;;;20.50;7.10;;;;;;;4.81;71.32;100621.13;4992952;28;20129;-69
2023/01/10 05:27:23;;;;;;;20.17;6.72;;;;;;;4.57;71.63;100632.78;4992656;28;20050;-71
2023/01/10 05:29:49;;;;;;;26.33;7.70;;;;;;;4.54;71.80;100638.34;4992550;28;20057;-69
2023/01/10 05:32:16;;;;;;;19.77;6.50;;;;;;;4.66;71.36;100638.31;4992134;28;20043;-68
2023/01/10 05:34:42;;;;;;;20.85;7.00;;;;;;;4.91;70.78;100642.50;4992902;28;20063;-71
2023/01/10 05:37:09;;;;;;;22.80;7.43;;;;;;;4.82;70.58;100644.91;4992940;28;20046;-70
2023/01/10 05:39:35;;;;;;;28.48;7.45;;;;;;;4.79;70.75;100658.44;4991845;28;20066;-70
2023/01/10 05:42:04;;;;;;;25.75;6.63;;;;;;;4.49;71.98;100656.47;4991931;28;20054;-70
2023/01/10 05:44:31;;;;;;;22.70;6.90;;;;;;;4.66;71.72;100668.41;4992340;28;20451;-70
2023/01/10 05:46:57;;;;;;;19.15;6.80;;;;;;;4.71;71.58;100665.38;4991730;28;20418;-70
2023/01/10 05:49:23;;;;;;;27.48;7.82;;;;;;;4.53;71.84;100667.69;4991757;28;20051;-70
2023/01/10 05:51:50;;;;;;;25.90;7.40;;;;;;;4.58;72.09;100666.34;4990114;28;20054;-70
2023/01/10 05:54:17;;;;;;;24.75;7.60;;;;;;;4.52;72.09;100668.63;4991071;28;20053;-70
2023/01/10 05:56:43;;;;;;;20.25;6.75;;;;;;;4.49;72.07;100680.38;4992680;28;20054;-71
2023/01/10 05:59:10;;;;;;;25.80;6.88;;;;;;;4.53;71.83;100681.81;4992132;28;20042;-69
2023/01/10 06:01:53;;;;;;;21.10;7.32;;;;;;;4.79;70.89;100682.38;4992409;28;20078;-70
2023/01/10 06:04:19;;;;;;;19.83;7.03;;;;;;;4.81;70.82;100699.06;4967782;28;20051;-69
2023/01/10 06:06:46;;;;;;;31.40;8.45;;;;;;;4.62;71.58;100703.28;4971889;28;20042;-69
2023/01/10 06:09:12;;;;;;;28.52;8.52;;;;;;;4.54;71.75;100703.91;4971610;28;20061;-70
2023/01/10 06:11:39;;;;;;;24.15;7.88;;;;;;;4.69;71.53;100717.78;4971539;28;20047;-70
2023/01/10 06:14:06;;;;;;;26.60;8.57;;;;;;;4.85;70.89;100722.72;4971740;28;20042;-70
2023/01/10 06:16:33;;;;;;;31.67;8.73;;;;;;;4.48;71.80;100725.66;4971930;28;20491;-70
2023/01/10 06:18:59;;;;;;;27.00;8.32;;;;;;;4.32;72.45;100733.94;4972348;28;20042;-71
2023/01/10 06:21:26;;;;;;;25.63;7.78;;;;;;;4.66;71.69;100731.31;4971523;28;20130;-69
2023/01/10 06:23:52;;;;;;;26.17;7.75;;;;;;;4.62;71.83;100738.69;4972017;28;20073;-69
2023/01/10 06:26:19;;;;;;;37.35;8.57;;;;;;;4.52;72.06;100741.25;4964112;28;20046;-70
2023/01/10 06:28:45;;;;;;;25.02;8.07;;;;;;;4.37;71.76;100738.91;4971240;28;20406;-69
2023/01/10 06:31:13;;;;;;;25.08;7.63;;;;;;;4.03;73.11;100746.81;4971455;28;20070;-69
2023/01/10 06:33:42;;;;;;;27.15;8.00;;;;;;;4.43;72.39;100751.75;4972036;28;20062;-69
2023/01/10 06:36:09;;;;;;;25.55;7.55;;;;;;;4.52;72.09;100761.63;4971670;28;20042;-71
2023/01/10 06:38:36;;;;;;;26.48;8.18;;;;;;;4.58;71.84;100761.16;4971140;28;20129;-70
2023/01/10 06:41:11;;;;;;;25.92;7.60;;;;;;;4.47;71.96;100771.78;4971429;28;20047;-70
2023/01/10 06:43:40;;;;;;;25.85;7.53;;;;;;;4.56;71.91;100779.03;4971300;28;20059;-70
2023/01/10 06:46:08;;;;;;;26.00;7.70;;;;;;;4.53;71.99;100788.09;4970865;28;20046;-70
2023/01/10 06:48:36;;;;;;;30.23;8.45;;;;;;;4.48;71.57;100800.03;4971023;28;20050;-71
2023/01/10 06:51:04;;;;;;;27.38;7.90;;;;;;;4.43;71.92;100794.25;4970840;28;20048;-71
2023/01/10 06:53:31;;;;;;;27.80;8.30;;;;;;;4.51;71.69;100810.41;4971273;28;20058;-69
2023/01/10 06:55:57;;;;;;;29.27;7.93;;;;;;;4.52;71.94;100804.13;4971085;28;20492;-71
2023/01/10 06:58:24;;;;;;;23.95;8.50;;;;;;;4.27;72.63;100816.63;4972019;28;20047;-70
2023/01/10 07:00:51;;;;;;;32.63;8.75;;;;;;;4.39;71.95;100819.34;4969952;28;20211;-70
2023/01/10 07:03:17;;;;;;;30.05;8.07;;;;;;;4.56;71.82;100811.75;4971402;28;20038;-71
2023/01/10 07:05:44;;;;;;;24.77;8.55;;;;;;;4.50;71.79;100824.69;4971688;28;20057;-71
2023/01/10 07:08:11;;;;;;;34.28;9.23;;;;;;;4.41;71.73;100822.72;4960282;28;20559;-70
2023/01/10 07:10:41;;;;;;;29.98;8.38;;;;;;;4.27;72.19;100835.22;4970904;28;20051;-69
2023/01/10 07:13:08;;;;;;;21.42;8.93;;;;;;;4.27;72.79;100835.22;4971155;28;20133;-68
2023/01/10 07:15:34;;;;;;;27.85;9.23;;;;;;;4.39;72.06;100835.28;4970551;28;20052;-69
2023/01/10 07:18:01;;;;;;;30.55;9.50;;;;;;;4.37;72.05;100837.16;4970102;28;20474;-70
2023/01/10 07:20:28;;;;;;;33.50;9.23;;;;;;;4.31;72.08;100841.13;4971127;28;20043;-70
2023/01/10 07:22:59;;;;;;;25.67;9.80;;;;;;;4.12;72.76;100840.84;4971919;28;20054;-71
2023/01/10 07:25:28;;;;;;;27.67;10.50;;;;;;;4.23;72.67;100849.69;4970269;28;20111;-71
2023/01/10 07:27:55;;;;;;;24.77;10.10;;;;;;;4.07;72.47;100860.63;4970645;28;20071;-71
2023/01/10 07:30:23;;;;;;;32.13;10.52;;;;;;;4.09;72.76;100860.50;4970919;28;20046;-73
2023/01/10 07:32:55;;;;;;;30.33;10.38;;;;;;;3.94;73.18;100866.97;4970947;28;20047;-73
2023/01/10 07:35:23;;;;;;;24.73;11.50;;;;;;;4.14;72.93;100863.69;4971215;28;20051;-72
2023/01/10 07:37:49;;;;;;;24.17;9.82;;;;;;;4.07;72.90;100871.25;4971034;28;20049;-73
2023/01/10 07:40:17;;;;;;;28.17;9.55;;;;;;;3.91;73.31;100877.81;4971030;28;20043;-72
2023/01/10 07:42:44;;;;;;;32.22;13.90;;;;;;;4.06;73.15;100882.81;4970758;28;20047;-72
2023/01/10 07:45:10;;;;;;;28.15;11.15;;;;;;;4.21;72.85;100886.16;4970337;28;20092;-72
2023/01/10 07:47:37;;;;;;;34.15;11.02;;;;;;;3.95;73.36;100895.19;4970348;28;20422;-73
2023/01/10 07:50:04;;;;;;;22.35;9.20;;;;;;;4.15;72.95;100896.38;4953634;28;20137;-72
2023/01/10 07:52:32;;;;;;;29.95;11.20;;;;;;;4.17;72.94;100910.38;4970911;28;20049;-72
2023/01/10 07:54:58;;;;;;;35.45;11.50;;;;;;;4.16;72.97;100916.66;4971053;28;20127;-72
2023/01/10 07:57:25;;;;;;;34.05;10.63;;;;;;;4.28;72.15;100921.91;4970504;28;20043;-73
2023/01/10 07:59:53;;;;;;;25.30;10.32;;;;;;;4.11;72.52;100922.31;4953544;28;20125;-73
2023/01/10 08:02:20;;;;;;;28.60;9.45;;;;;;;4.09;72.86;100924.22;4969602;28;20043;-73
2023/01/10 08:04:47;;;;;;;29.40;10.63;;;;;;;4.34;71.94;100928.53;4982772;28;20063;-73
2023/01/10 08:07:14;;;;;;;26.95;9.13;;;;;;;4.19;72.55;100937.66;4990643;28;20146;-73
2023/01/10 08:09:40;;;;;;;28.90;10.02;;;;;;;4.42;71.90;100931.53;4989910;28;20050;-74
2023/01/10 08:12:07;;;;;;;22.33;9.48;;;;;;;4.15;72.15;100934.41;4990532;28;20050;-72
2023/01/10 08:14:33;;;;;;;30.65;9.80;;;;;;;4.16;72.30;100936.09;4989632;28;20042;-73
2023/01/10 08:17:00;;;;;;;27.65;9.82;;;;;;;4.37;71.66;100948.72;4990242;28;20050;-71
2023/01/10 08:19:26;;;;;;;26.40;9.52;;;;;;;4.28;72.02;100952.94;4990620;28;20057;-72
2023/01/10 08:21:54;;;;;;;29.30;9.50;;;;;;;4.28;71.80;100960.91;4990842;28;20050;-74
2023/01/10 08:24:21;;;;;;;31.83;9.95;;;;;;;4.41;71.56;100966.16;4992677;28;20447;-73
2023/01/10 08:26:47;;;;;;;21.52;9.52;;;;;;;4.17;72.29;100966.13;4976133;28;20054;-73
2023/01/10 08:29:14;;;;;;;24.70;9.32;;;;;;;4.37;71.71;100976.13;4993377;28;20049;-73
2023/01/10 08:31:41;;;;;;;22.70;8.98;;;;;;;4.21;72.39;100973.78;4993076;28;20077;-73
2023/01/10 08:34:08;;;;;;;27.08;9.02;;;;;;;4.26;72.27;100979.59;4991535;28;20517;-73
2023/01/10 08:36:34;;;;;;;23.38;9.48;;;;;;;4.33;72.13;100980.81;4993538;28;20514;-73
2023/01/10 08:39:01;;;;;;;22.73;9.38;;;;;;;4.27;72.27;100980.44;4993542;28;20487;-72
2023/01/10 08:41:27;;;;;;;24.65;9.25;;;;;;;4.26;71.83;100976.94;4994211;28;20050;-72
2023/01/10 08:43:54;;;;;;;24.40;9.65;;;;;;;4.34;72.29;100981.66;4996484;28;20034;-70
2023/01/10 08:46:20;;;;;;;30.30;9.90;;;;;;;4.49;71.72;100990.38;5017961;28;20090;-71
2023/01/10 08:48:49;;;;;;;23.35;9.55;;;;;;;4.48;71.65;100989.50;5017437;28;20050;-71
2023/01/10 08:51:15;;;;;;;22.60;9.80;;;;;;;4.43;71.59;100993.47;5017572;28;20048;-71
2023/01/10 08:53:42;;;;;;;22.88;9.70;;;;;;;4.47;71.54;100990.47;5016195;28;20440;-71
2023/01/10 08:56:08;;;;;;;23.00;9.10;;;;;;;4.34;71.90;101002.91;5017308;28;20065;-70
2023/01/10 08:58:35;;;;;;;28.15;10.23;;;;;;;4.44;71.66;101008.44;5016483;28;20053;-71
2023/01/10 09:01:07;;;;;;;28.70;10.10;;;;;;;4.29;72.15;101011.25;5016207;28;20030;-69
2023/01/10 09:03:34;;;;;;;32.25;10.25;;;;;;;4.46;72.26;101019.81;5014513;28;20053;-71
2023/01/10 09:06:01;;;;;;;25.88;9.80;;;;;;;4.56;72.03;101023.50;4997128;28;20090;-70
2023/01/10 09:08:27;;;;;;;27.33;9.57;;;;;;;4.22;72.35;101025.09;4980886;28;20059;-70
2023/01/10 09:10:58;;;;;;;25.83;10.15;;;;;;;4.34;71.91;101032.97;4996600;28;20047;-70
2023/01/10 09:13:24;;;;;;;28.33;10.10;;;;;;;4.21;72.40;101042.81;4996180;28;20049;-72
2023/01/10 09:15:51;;;;;;;26.08;9.85;;;;;;;4.56;71.90;101039.44;4997130;28;20026;-70
2023/01/10 09:18:18;;;;;;;26.75;9.20;;;;;;;5.02;70.86;101044.78;4996167;28;20058;-70
2023/01/10 09:20:47;;;;;;;29.52;9.98;;;;;;;5.04;70.57;101042.03;4996376;28;20054;-70
2023/01/10 09:23:18;;;;;;;24.30;8.80;;;;;;;4.96;70.32;101045.25;4995735;28;20046;-69
2023/01/10 09:25:46;;;;;;;23.00;9.60;;;;;;;4.99;70.96;101033.53;4995774;28;20073;-71
2023/01/10 09:28:13;;;;;;;21.60;7.93;;;;;;;5.01;70.35;101045.78;4995236;28;20286;-71
2023/01/10 09:30:40;;;;;;;21.27;8.50;;;;;;;5.21;69.77;101046.91;4994819;28;20057;-68
2023/01/10 09:33:07;;;;;;;19.98;8.45;;;;;;;5.41;69.44;101048.00;4995429;28;20062;-71
2023/01/10 09:35:36;;;;;;;20.05;7.80;;;;;;;5.45;68.96;101048.63;4995532;28;20058;-70
2023/01/10 09:38:05;;;;;;;26.73;8.27;;;;;;;5.45;69.04;101048.63;4995547;28;20074;-71
2023/01/10 09:41:02;;;;;;;20.23;8.23;;;;;;;5.28;69.58;101058.78;4994661;28;20102;-69
2023/01/10 09:43:50;;;;;;;24.08;8.63;;;;;;;5.11;70.46;101055.69;4994643;28;20047;-69
2023/01/10 09:46:51;;;;;;;19.77;8.88;;;;;;;5.06;70.87;101058.69;4995351;28;20054;-69
2023/01/10 09:49:23;;;;;;;24.60;9.57;;;;;;;4.96;71.43;101063.88;4995024;28;20043;-70
2023/01/10 09:51:52;;;;;;;33.13;9.65;;;;;;;5.05;71.16;101072.97;4996016;28;20102;-69
2023/01/10 09:54:27;;;;;;;21.27;9.07;;;;;;;5.08;71.17;101074.56;4995977;28;20090;-71
2023/01/10 09:56:54;;;;;;;24.00;8.55;;;;;;;5.18;70.96;101067.56;4995340;28;20047;-69
2023/01/10 09:59:29;;;;;;;26.95;8.32;;;;;;;5.19;71.00;101070.09;4995264;28;20057;-70
2023/01/10 10:02:16;;;;;;;24.40;8.73;;;;;;;5.14;70.64;101069.59;4996392;28;20046;-70
2023/01/10 10:04:57;;;;;;;28.77;8.60;;;;;;;5.27;70.90;101067.69;5007646;28;20069;-70
2023/01/10 10:07:24;;;;;;;;;;;;;;;5.17;70.96;101071.19;5012461;28;20114;-70
2023/01/10 10:09:50;;;;;;;19.48;7.40;;;;;;;5.38;69.92;101069.53;5015301;28;19964;-69
2023/01/10 10:12:42;;;;;;;27.98;7.68;;;;;;;5.58;69.78;101060.03;5015448;28;20053;-71
2023/01/10 10:15:11;;;;;;;;;;;;;;;6.00;68.52;101066.44;5015734;28;20034;-71
2023/01/10 10:17:51;;;;;;;17.27;6.97;;;;;;;6.23;67.41;101061.94;5015510;28;19944;-71
2023/01/10 10:20:37;;;;;;;21.77;6.15;;;;;;;6.82;65.38;101065.19;5015950;28;20086;-69
2023/01/10 10:23:25;;;;;;;20.45;5.80;;;;;;;7.03;64.22;101066.06;5016347;28;20086;-71
2023/01/10 10:25:57;;;;;;;23.42;6.65;;;;;;;6.89;64.14;101069.06;5015724;28;20042;-72
2023/01/10 10:28:34;;;;;;;23.48;5.57;;;;;;;6.87;63.89;101066.50;5015613;28;20052;-72
2023/01/10 10:31:27;;;;;;;19.65;5.60;;;;;;;6.85;64.12;101072.94;5139342;23;20030;-70
2023/01/10 10:34:09;;;;;;;23.70;5.88;;;;;;;6.34;65.39;101074.44;5016149;28;20036;-71
2023/01/10 10:37:04;;;;;;;30.35;8.70;;;;;;;5.93;65.75;101083.03;5016112;28;20046;-71
2023/01/10 10:39:40;;;;;;;22.88;6.90;;;;;;;5.90;65.77;101096.56;5015683;28;20053;-72
2023/01/10 10:42:12;;;;;;;22.33;6.30;;;;;;;6.16;65.05;101084.72;5016176;28;20112;-72
2023/01/10 10:44:46;;;;;;;20.73;6.75;;;;;;;5.97;65.93;101087.97;5015450;28;20114;-71
2023/01/10 10:47:17;;;;;;;19.85;6.15;;;;;;;6.11;65.17;101084.22;5015508;28;20034;-71
2023/01/10 10:49:53;;;;;;;23.92;5.70;;;;;;;6.01;65.05;101085.94;5016428;28;20091;-71
2023/01/10 10:52:25;;;;;;;23.77;7.25;;;;;;;6.18;64.24;101088.13;5016166;28;20057;-70
2023/01/10 11:00:21;;;;;;;25.55;6.50;;;;;;;5.74;66.02;101119.09;6090673;23;21081;-73
2023/01/10 11:02:55;;;;;;;20.85;6.10;;;;;;;5.56;66.97;101119.66;4924837;23;20042;-72
2023/01/10 11:05:34;;;;;;;23.23;5.63;;;;;;;5.61;66.98;101118.34;5052920;28;20025;-70
2023/01/10 11:08:08;;;;;;;25.63;6.95;;;;;;;6.06;65.44;101123.72;5055485;28;20044;-70
2023/01/10 11:10:37;;;;;;;25.00;6.10;;;;;;;5.75;66.28;101117.28;5209820;23;20021;-70
2023/01/10 11:13:15;;;;;;;21.38;6.40;;;;;;;6.34;64.88;101116.22;5055935;28;20113;-69
2023/01/10 11:15:45;;;;;;;20.73;5.63;;;;;;;6.54;63.54;101102.13;5055514;28;20029;-71
2023/01/10 11:18:15;;;;;;;25.98;4.50;;;;;;;6.38;63.82;101096.34;5154968;23;20052;-70
2023/01/10 11:21:07;;;;;;;22.23;6.13;;;;;;;6.51;63.05;101091.72;5035055;28;20037;-71
2023/01/10 11:23:42;;;;;;;21.98;5.28;;;;;;;7.28;61.45;101090.69;5061349;23;20038;-70
2023/01/10 11:26:25;;;;;;;26.35;5.38;;;;;;;7.87;59.62;101096.25;5015719;28;20033;-71
2023/01/10 11:29:12;;;;;;;22.27;5.65;;;;;;;7.88;58.85;101097.97;5014953;28;20041;-70
2023/01/10 11:31:40;;;;;;;26.10;4.68;;;;;;;7.58;59.54;101109.44;5014939;28;20066;-73
2023/01/10 11:34:27;;;;;;;29.10;5.32;;;;;;;6.90;61.17;101102.75;5014209;28;20050;-72
2023/01/10 11:37:00;;;;;;;21.85;4.85;;;;;;;7.24;59.94;101100.78;5014719;28;20066;-70
2023/01/10 11:39:28;;;;;;;29.52;4.70;;;;;;;7.47;59.66;101092.66;5014321;28;20034;-71
2023/01/10 11:41:57;;;;;;;21.80;4.88;;;;;;;8.03;57.35;101103.78;5015260;28;20038;-70
2023/01/10 11:44:26;;;;;;;18.00;4.40;;;;;;;8.01;57.51;101095.06;5014645;28;20030;-71
2023/01/10 11:47:00;;;;;;;30.88;4.82;;;;;;;7.52;58.71;101112.63;5014571;28;20034;-71
2023/01/10 11:49:48;;;;;;;26.52;5.22;;;;;;;7.19;59.57;101121.69;5013553;28;20102;-71
2023/01/10 11:52:23;;;;;;;22.15;5.05;;;;;;;6.85;60.84;101120.97;5013356;28;20085;-70
2023/01/10 11:54:49;;;;;;;23.40;5.47;;;;;;;7.37;59.43;101120.13;5013740;28;20058;-70
2023/01/10 11:57:26;;;;;;;20.20;5.10;;;;;;;7.27;59.05;101126.38;5015287;28;20097;-70
2023/01/10 11:59:56;;;;;;;23.10;5.07;;;;;;;6.88;60.45;101132.22;5016410;28;20050;-70
2023/01/10 12:02:39;;;;;;;24.33;4.50;;;;;;;6.41;61.04;101138.72;5017770;28;20125;-69